SNKJ6 RPMD-RPVI
Flight info
| Callsign | SNKJ6 |
|---|---|
| Flight time | 1h 8m |
| Altitude | 34000 |
| Route | JOFER3R JOFER W8 MCT W6A KADSO KADSO2 |
| Aircraft | A321/M-SDE3FGHIRWY/LB1 |
Departure
| Time | 2026-04-18 05:41 |
|---|---|
| Airport | Francisco Bangoy International Airport (RPMD) |
Arrival
| Time | 2026-04-18 06:50 |
|---|---|
| Airport | Iloilo International Airport (RPVI) |
| Time | Latitude | Longitude | Altitude | Speed | Heading |
|---|---|---|---|---|---|
| 2026-04-18 05:22 | 7.13033 | 125.64649 | 100 ft | 0 kts | 320° |
| 2026-04-18 05:31 | 7.13027 | 125.64654 | 101 ft | 4 kts | 320° |
| 2026-04-18 05:31 | 7.13013 | 125.64666 | 101 ft | 4 kts | 320° |
| 2026-04-18 05:31 | 7.12992 | 125.64684 | 101 ft | 4 kts | 320° |
| 2026-04-18 05:32 | 7.12975 | 125.64700 | 101 ft | 4 kts | 291° |
| 2026-04-18 05:32 | 7.12981 | 125.64729 | 100 ft | 4 kts | 229° |
| 2026-04-18 05:32 | 7.12986 | 125.64734 | 99 ft | 1 kts | 229° |
| 2026-04-18 05:32 | 7.12988 | 125.64736 | 99 ft | 1 kts | 229° |
| 2026-04-18 05:34 | 7.12981 | 125.64729 | 100 ft | 6 kts | 229° |
| 2026-04-18 05:35 | 7.12928 | 125.64667 | 101 ft | 17 kts | 229° |
| 2026-04-18 05:35 | 7.12836 | 125.64564 | 101 ft | 20 kts | 229° |
| 2026-04-18 05:35 | 7.12747 | 125.64465 | 101 ft | 16 kts | 222° |
| 2026-04-18 05:35 | 7.12657 | 125.64473 | 101 ft | 14 kts | 139° |
| 2026-04-18 05:36 | 7.12628 | 125.64502 | 101 ft | 0 kts | 136° |
| 2026-04-18 05:36 | 7.12592 | 125.64533 | 101 ft | 13 kts | 142° |
| 2026-04-18 05:37 | 7.12513 | 125.64528 | 99 ft | 12 kts | 231° |
| 2026-04-18 05:37 | 7.12462 | 125.64462 | 99 ft | 12 kts | 231° |
| 2026-04-18 05:37 | 7.12411 | 125.64404 | 101 ft | 10 kts | 228° |
| 2026-04-18 05:37 | 7.12357 | 125.64344 | 100 ft | 13 kts | 227° |
| 2026-04-18 05:38 | 7.12299 | 125.64280 | 101 ft | 15 kts | 228° |
| 2026-04-18 05:38 | 7.12216 | 125.64187 | 101 ft | 18 kts | 229° |
| 2026-04-18 05:38 | 7.12137 | 125.64092 | 102 ft | 16 kts | 231° |
| 2026-04-18 05:38 | 7.12063 | 125.64002 | 102 ft | 20 kts | 227° |
| 2026-04-18 05:39 | 7.11970 | 125.63899 | 102 ft | 21 kts | 228° |
| 2026-04-18 05:39 | 7.11865 | 125.63783 | 102 ft | 23 kts | 230° |
| 2026-04-18 05:39 | 7.11770 | 125.63659 | 101 ft | 22 kts | 243° |
| 2026-04-18 05:39 | 7.11729 | 125.63539 | 102 ft | 11 kts | 205° |
| 2026-04-18 05:40 | 7.11700 | 125.63578 | 100 ft | 9 kts | 84° |
| 2026-04-18 05:40 | 7.11768 | 125.63667 | 103 ft | 39 kts | 49° |
| 2026-04-18 05:40 | 7.12095 | 125.64048 | 103 ft | 102 kts | 49° |
| 2026-04-18 05:40 | 7.12670 | 125.64717 | 101 ft | 149 kts | 50° |
| 2026-04-18 05:41 | 7.13374 | 125.65550 | 511 ft | 155 kts | 50° |
| 2026-04-18 05:41 | 7.14085 | 125.66362 | 1064 ft | 155 kts | 47° |
| 2026-04-18 05:41 | 7.15006 | 125.66889 | 1523 ft | 157 kts | 5° |
| 2026-04-18 05:41 | 7.16105 | 125.66762 | 1877 ft | 165 kts | 350° |
| 2026-04-18 05:42 | 7.17305 | 125.66563 | 2019 ft | 184 kts | 352° |
| 2026-04-18 05:42 | 7.18613 | 125.66358 | 2139 ft | 196 kts | 351° |
| 2026-04-18 05:42 | 7.19989 | 125.66150 | 2271 ft | 203 kts | 352° |
| 2026-04-18 05:42 | 7.21409 | 125.65940 | 2378 ft | 210 kts | 353° |
| 2026-04-18 05:43 | 7.22887 | 125.65726 | 2488 ft | 220 kts | 352° |
| 2026-04-18 05:43 | 7.24463 | 125.65500 | 2600 ft | 238 kts | 352° |
| 2026-04-18 05:43 | 7.26162 | 125.65256 | 2731 ft | 255 kts | 352° |
| 2026-04-18 05:43 | 7.27945 | 125.64998 | 3057 ft | 261 kts | 352° |
| 2026-04-18 05:44 | 7.29748 | 125.64737 | 3481 ft | 263 kts | 352° |
| 2026-04-18 05:44 | 7.31560 | 125.64478 | 3920 ft | 265 kts | 352° |
| 2026-04-18 05:44 | 7.33391 | 125.64215 | 4324 ft | 266 kts | 352° |
| 2026-04-18 05:44 | 7.35228 | 125.63951 | 4754 ft | 268 kts | 352° |
| 2026-04-18 05:45 | 7.37080 | 125.63686 | 5145 ft | 270 kts | 352° |
| 2026-04-18 05:45 | 7.38939 | 125.63422 | 5537 ft | 271 kts | 352° |
| 2026-04-18 05:45 | 7.40811 | 125.63154 | 5921 ft | 272 kts | 352° |
| 2026-04-18 05:45 | 7.42698 | 125.62886 | 6294 ft | 275 kts | 351° |
| 2026-04-18 05:46 | 7.44604 | 125.62600 | 6619 ft | 278 kts | 347° |
| 2026-04-18 05:46 | 7.46444 | 125.62011 | 6953 ft | 278 kts | 334° |
| 2026-04-18 05:46 | 7.48098 | 125.61041 | 7282 ft | 280 kts | 322° |
| 2026-04-18 05:46 | 7.49640 | 125.59797 | 7653 ft | 281 kts | 320° |
| 2026-04-18 05:47 | 7.51148 | 125.58581 | 8009 ft | 282 kts | 320° |
| 2026-04-18 05:47 | 7.52686 | 125.57349 | 8339 ft | 283 kts | 320° |
| 2026-04-18 05:47 | 7.54238 | 125.56109 | 8666 ft | 285 kts | 320° |
| 2026-04-18 05:47 | 7.55797 | 125.54865 | 8996 ft | 287 kts | 320° |
| 2026-04-18 05:48 | 7.57365 | 125.53611 | 9343 ft | 288 kts | 320° |
| 2026-04-18 05:48 | 7.58934 | 125.52352 | 9697 ft | 289 kts | 320° |
| 2026-04-18 05:48 | 7.60514 | 125.51084 | 9973 ft | 291 kts | 320° |
| 2026-04-18 05:48 | 7.62108 | 125.49802 | 10139 ft | 297 kts | 320° |
| 2026-04-18 05:49 | 7.63747 | 125.48483 | 10250 ft | 304 kts | 320° |
| 2026-04-18 05:49 | 7.65416 | 125.47141 | 10371 ft | 310 kts | 320° |
| 2026-04-18 05:49 | 7.67119 | 125.45771 | 10494 ft | 316 kts | 320° |
| 2026-04-18 05:49 | 7.68850 | 125.44379 | 10617 ft | 321 kts | 320° |
| 2026-04-18 05:50 | 7.70610 | 125.42960 | 10731 ft | 327 kts | 320° |
| 2026-04-18 05:50 | 7.72397 | 125.41520 | 10867 ft | 330 kts | 320° |
| 2026-04-18 05:50 | 7.74193 | 125.40076 | 11047 ft | 331 kts | 319° |
| 2026-04-18 05:50 | 7.75995 | 125.38628 | 11236 ft | 331 kts | 319° |
| 2026-04-18 05:51 | 7.77796 | 125.37182 | 11435 ft | 332 kts | 320° |
| 2026-04-18 05:51 | 7.79606 | 125.35729 | 11578 ft | 333 kts | 320° |
| 2026-04-18 05:51 | 7.81422 | 125.34273 | 11732 ft | 334 kts | 320° |
| 2026-04-18 05:51 | 7.83216 | 125.32832 | 11862 ft | 335 kts | 320° |
| 2026-04-18 05:52 | 7.85060 | 125.31347 | 11994 ft | 335 kts | 319° |
| 2026-04-18 05:52 | 7.86887 | 125.29876 | 12128 ft | 336 kts | 320° |
| 2026-04-18 05:52 | 7.88700 | 125.28418 | 12262 ft | 338 kts | 320° |
| 2026-04-18 05:52 | 7.90539 | 125.26938 | 12456 ft | 339 kts | 319° |
| 2026-04-18 05:53 | 7.92383 | 125.25452 | 12622 ft | 339 kts | 320° |
| 2026-04-18 05:53 | 7.94183 | 125.24005 | 13293 ft | 322 kts | 320° |
| 2026-04-18 05:53 | 7.95944 | 125.22592 | 13473 ft | 326 kts | 321° |
| 2026-04-18 05:53 | 7.97851 | 125.21331 | 13591 ft | 331 kts | 331° |
| 2026-04-18 05:54 | 7.99910 | 125.20264 | 13720 ft | 334 kts | 332° |
| 2026-04-18 05:54 | 8.01983 | 125.19188 | 13829 ft | 337 kts | 331° |
| 2026-04-18 05:54 | 8.04074 | 125.18098 | 13946 ft | 339 kts | 331° |
| 2026-04-18 05:54 | 8.06173 | 125.17004 | 14059 ft | 341 kts | 331° |
| 2026-04-18 05:55 | 8.08289 | 125.15902 | 14183 ft | 343 kts | 331° |
| 2026-04-18 05:55 | 8.10410 | 125.14799 | 14297 ft | 344 kts | 331° |
| 2026-04-18 05:55 | 8.12543 | 125.13688 | 14424 ft | 345 kts | 331° |
| 2026-04-18 05:55 | 8.14677 | 125.12575 | 14539 ft | 346 kts | 332° |
| 2026-04-18 05:56 | 8.16821 | 125.11459 | 14651 ft | 347 kts | 331° |
| 2026-04-18 05:56 | 8.18971 | 125.10340 | 14767 ft | 348 kts | 331° |
| 2026-04-18 05:56 | 8.21123 | 125.09221 | 14890 ft | 349 kts | 331° |
| 2026-04-18 05:56 | 8.23283 | 125.08095 | 15007 ft | 349 kts | 331° |
| 2026-04-18 05:57 | 8.27612 | 125.05842 | 15238 ft | 350 kts | 332° |
| 2026-04-18 05:57 | 8.29772 | 125.04715 | 15354 ft | 350 kts | 332° |
| 2026-04-18 05:57 | 8.31936 | 125.03583 | 15478 ft | 350 kts | 332° |
| 2026-04-18 05:58 | 8.34096 | 125.02455 | 15596 ft | 350 kts | 332° |
| 2026-04-18 05:58 | 8.36263 | 125.01327 | 15715 ft | 350 kts | 332° |
| 2026-04-18 05:58 | 8.38426 | 125.00198 | 15837 ft | 350 kts | 332° |
| 2026-04-18 05:58 | 8.40593 | 124.99067 | 15944 ft | 350 kts | 332° |
| 2026-04-18 05:59 | 8.42691 | 124.97971 | 16618 ft | 328 kts | 332° |
| 2026-04-18 05:59 | 8.44658 | 124.96943 | 17279 ft | 315 kts | 333° |
| 2026-04-18 05:59 | 8.46593 | 124.95930 | 17583 ft | 311 kts | 333° |
| 2026-04-18 05:59 | 8.48512 | 124.94926 | 17839 ft | 316 kts | 333° |
| 2026-04-18 06:00 | 8.50511 | 124.93882 | 17969 ft | 330 kts | 333° |
| 2026-04-18 06:00 | 8.52591 | 124.92797 | 18177 ft | 341 kts | 333° |
| 2026-04-18 06:00 | 8.54720 | 124.91685 | 18509 ft | 347 kts | 333° |
| 2026-04-18 06:00 | 8.56877 | 124.90558 | 18839 ft | 352 kts | 333° |
| 2026-04-18 06:01 | 8.59073 | 124.89411 | 19178 ft | 357 kts | 333° |
| 2026-04-18 06:01 | 8.61294 | 124.88250 | 19518 ft | 362 kts | 333° |
| 2026-04-18 06:01 | 8.63546 | 124.87072 | 19865 ft | 366 kts | 333° |
| 2026-04-18 06:01 | 8.65817 | 124.85880 | 20222 ft | 370 kts | 333° |
| 2026-04-18 06:02 | 8.68112 | 124.84677 | 20598 ft | 373 kts | 334° |
| 2026-04-18 06:02 | 8.70433 | 124.83465 | 20975 ft | 377 kts | 334° |
| 2026-04-18 06:02 | 8.72743 | 124.82262 | 21355 ft | 380 kts | 334° |
| 2026-04-18 06:02 | 8.75095 | 124.81035 | 21747 ft | 382 kts | 334° |
| 2026-04-18 06:03 | 8.77493 | 124.79783 | 22147 ft | 384 kts | 333° |
| 2026-04-18 06:03 | 8.79845 | 124.78553 | 22542 ft | 386 kts | 333° |
| 2026-04-18 06:03 | 8.82265 | 124.77283 | 22954 ft | 388 kts | 333° |
| 2026-04-18 06:03 | 8.84636 | 124.76039 | 23346 ft | 389 kts | 334° |
| 2026-04-18 06:04 | 8.87072 | 124.74760 | 23722 ft | 390 kts | 334° |
| 2026-04-18 06:04 | 8.89456 | 124.73511 | 24063 ft | 391 kts | 334° |
| 2026-04-18 06:04 | 8.91871 | 124.72247 | 24413 ft | 392 kts | 334° |
| 2026-04-18 06:04 | 8.94295 | 124.70979 | 24764 ft | 392 kts | 334° |
| 2026-04-18 06:05 | 8.96716 | 124.69712 | 25123 ft | 392 kts | 334° |
| 2026-04-18 06:05 | 8.99144 | 124.68441 | 25488 ft | 393 kts | 334° |
| 2026-04-18 06:05 | 9.01567 | 124.67173 | 25852 ft | 393 kts | 334° |
| 2026-04-18 06:05 | 9.03994 | 124.65899 | 26226 ft | 392 kts | 334° |
| 2026-04-18 06:06 | 9.06414 | 124.64630 | 26614 ft | 392 kts | 334° |
| 2026-04-18 06:06 | 9.08836 | 124.63360 | 26987 ft | 391 kts | 334° |
| 2026-04-18 06:06 | 9.11249 | 124.62094 | 27375 ft | 391 kts | 333° |
| 2026-04-18 06:06 | 9.13659 | 124.60827 | 27764 ft | 389 kts | 334° |
| 2026-04-18 06:07 | 9.16056 | 124.59566 | 28163 ft | 388 kts | 334° |
| 2026-04-18 06:07 | 9.18448 | 124.58309 | 28568 ft | 386 kts | 334° |
| 2026-04-18 06:07 | 9.20829 | 124.57061 | 28978 ft | 384 kts | 334° |
| 2026-04-18 06:07 | 9.23191 | 124.55823 | 29393 ft | 381 kts | 334° |
| 2026-04-18 06:08 | 9.25540 | 124.54590 | 29817 ft | 378 kts | 334° |
| 2026-04-18 06:08 | 9.27876 | 124.53365 | 30074 ft | 380 kts | 334° |
| 2026-04-18 06:08 | 9.30233 | 124.52128 | 30191 ft | 384 kts | 334° |
| 2026-04-18 06:08 | 9.32624 | 124.50875 | 30318 ft | 388 kts | 334° |
| 2026-04-18 06:09 | 9.35032 | 124.49611 | 30511 ft | 390 kts | 333° |
| 2026-04-18 06:09 | 9.37449 | 124.48342 | 30678 ft | 393 kts | 333° |
| 2026-04-18 06:09 | 9.39879 | 124.47066 | 30863 ft | 395 kts | 333° |
| 2026-04-18 06:09 | 9.42325 | 124.45780 | 31055 ft | 396 kts | 333° |
| 2026-04-18 06:10 | 9.44748 | 124.44505 | 31247 ft | 398 kts | 333° |
| 2026-04-18 06:10 | 9.47212 | 124.43209 | 31441 ft | 399 kts | 333° |
| 2026-04-18 06:10 | 9.49680 | 124.41911 | 31629 ft | 401 kts | 333° |
| 2026-04-18 06:10 | 9.52158 | 124.40607 | 31800 ft | 403 kts | 333° |
| 2026-04-18 06:11 | 9.54655 | 124.39294 | 31971 ft | 405 kts | 333° |
| 2026-04-18 06:11 | 9.57156 | 124.37978 | 32156 ft | 406 kts | 333° |
| 2026-04-18 06:11 | 9.59672 | 124.36653 | 32340 ft | 408 kts | 333° |
| 2026-04-18 06:11 | 9.62197 | 124.35323 | 32528 ft | 409 kts | 333° |
| 2026-04-18 06:12 | 9.64725 | 124.33993 | 32714 ft | 411 kts | 333° |
| 2026-04-18 06:12 | 9.67270 | 124.32656 | 32889 ft | 413 kts | 333° |
| 2026-04-18 06:12 | 9.69821 | 124.31313 | 33046 ft | 415 kts | 333° |
| 2026-04-18 06:12 | 9.72382 | 124.29962 | 33218 ft | 416 kts | 333° |
| 2026-04-18 06:13 | 9.74957 | 124.28602 | 33395 ft | 418 kts | 333° |
| 2026-04-18 06:13 | 9.77535 | 124.27241 | 33569 ft | 419 kts | 333° |
| 2026-04-18 06:13 | 9.80129 | 124.25874 | 33746 ft | 420 kts | 333° |
| 2026-04-18 06:13 | 9.82727 | 124.24505 | 33863 ft | 423 kts | 333° |
| 2026-04-18 06:14 | 9.85360 | 124.23117 | 33886 ft | 429 kts | 333° |
| 2026-04-18 06:14 | 9.90735 | 124.20284 | 33888 ft | 442 kts | 333° |
| 2026-04-18 06:15 | 9.96262 | 124.17364 | 33892 ft | 454 kts | 333° |
| 2026-04-18 06:15 | 10.01942 | 124.14371 | 33892 ft | 465 kts | 333° |
| 2026-04-18 06:16 | 10.07693 | 124.11348 | 33880 ft | 466 kts | 333° |
| 2026-04-18 06:16 | 10.13441 | 124.08311 | 33874 ft | 466 kts | 333° |
| 2026-04-18 06:17 | 10.19186 | 124.05268 | 33865 ft | 466 kts | 333° |
| 2026-04-18 06:17 | 10.22060 | 124.03746 | 33612 ft | 466 kts | 333° |
| 2026-04-18 06:17 | 10.24938 | 124.02224 | 33357 ft | 466 kts | 333° |
| 2026-04-18 06:17 | 10.27778 | 124.00722 | 33111 ft | 466 kts | 333° |
| 2026-04-18 06:18 | 10.30607 | 123.99124 | 32860 ft | 466 kts | 326° |
| 2026-04-18 06:18 | 10.33197 | 123.97082 | 32605 ft | 466 kts | 317° |
| 2026-04-18 06:18 | 10.35560 | 123.94817 | 32365 ft | 467 kts | 316° |
| 2026-04-18 06:18 | 10.37121 | 123.93318 | 32199 ft | 467 kts | 316° |
| 2026-04-18 06:19 | 10.40280 | 123.90292 | 31883 ft | 466 kts | 316° |
| 2026-04-18 06:19 | 10.42631 | 123.88044 | 31649 ft | 464 kts | 316° |
| 2026-04-18 06:19 | 10.44949 | 123.85830 | 31425 ft | 462 kts | 316° |
| 2026-04-18 06:19 | 10.46524 | 123.84325 | 31195 ft | 459 kts | 316° |
| 2026-04-18 06:20 | 10.49602 | 123.81385 | 30474 ft | 457 kts | 317° |
| 2026-04-18 06:20 | 10.51915 | 123.79176 | 29926 ft | 456 kts | 317° |
| 2026-04-18 06:20 | 10.54225 | 123.76968 | 29326 ft | 454 kts | 317° |
| 2026-04-18 06:20 | 10.56511 | 123.74781 | 28821 ft | 450 kts | 317° |
| 2026-04-18 06:21 | 10.58783 | 123.72609 | 28282 ft | 446 kts | 317° |
| 2026-04-18 06:21 | 10.60304 | 123.71154 | 27931 ft | 444 kts | 317° |
| 2026-04-18 06:21 | 10.63266 | 123.68317 | 27248 ft | 439 kts | 317° |
| 2026-04-18 06:21 | 10.64764 | 123.66879 | 26904 ft | 437 kts | 316° |
| 2026-04-18 06:22 | 10.66962 | 123.64767 | 26411 ft | 434 kts | 316° |
| 2026-04-18 06:22 | 10.69149 | 123.62666 | 25925 ft | 430 kts | 316° |
| 2026-04-18 06:22 | 10.71315 | 123.60591 | 25453 ft | 427 kts | 316° |
| 2026-04-18 06:22 | 10.73471 | 123.58530 | 24987 ft | 423 kts | 317° |
| 2026-04-18 06:23 | 10.75605 | 123.56491 | 24524 ft | 420 kts | 317° |
| 2026-04-18 06:23 | 10.77722 | 123.54468 | 24075 ft | 417 kts | 317° |
| 2026-04-18 06:23 | 10.79827 | 123.52452 | 23606 ft | 414 kts | 317° |
| 2026-04-18 06:23 | 10.81916 | 123.50446 | 23105 ft | 411 kts | 317° |
| 2026-04-18 06:24 | 10.83954 | 123.48486 | 22649 ft | 407 kts | 317° |
| 2026-04-18 06:24 | 10.86031 | 123.46491 | 22183 ft | 403 kts | 317° |
| 2026-04-18 06:24 | 10.88030 | 123.44571 | 21726 ft | 399 kts | 317° |
| 2026-04-18 06:24 | 10.90037 | 123.42643 | 21265 ft | 395 kts | 317° |
| 2026-04-18 06:25 | 10.92030 | 123.40727 | 20808 ft | 392 kts | 317° |
| 2026-04-18 06:25 | 10.94006 | 123.38828 | 20333 ft | 390 kts | 317° |
| 2026-04-18 06:25 | 10.95977 | 123.36935 | 19843 ft | 388 kts | 317° |
| 2026-04-18 06:25 | 10.97917 | 123.35038 | 19364 ft | 386 kts | 313° |
| 2026-04-18 06:26 | 10.99479 | 123.32819 | 18886 ft | 386 kts | 298° |
| 2026-04-18 06:26 | 11.00414 | 123.30270 | 18415 ft | 386 kts | 283° |
| 2026-04-18 06:26 | 11.00660 | 123.27559 | 17909 ft | 385 kts | 268° |
| 2026-04-18 06:26 | 11.00241 | 123.24879 | 17434 ft | 383 kts | 258° |
| 2026-04-18 06:27 | 10.99656 | 123.22244 | 16963 ft | 380 kts | 258° |
| 2026-04-18 06:27 | 10.99082 | 123.19636 | 16516 ft | 377 kts | 258° |
| 2026-04-18 06:27 | 10.98516 | 123.17042 | 16078 ft | 374 kts | 258° |
| 2026-04-18 06:27 | 10.97955 | 123.14474 | 15622 ft | 371 kts | 258° |
| 2026-04-18 06:28 | 10.97394 | 123.11920 | 15179 ft | 368 kts | 258° |
| 2026-04-18 06:28 | 10.96844 | 123.09418 | 14744 ft | 354 kts | 258° |
| 2026-04-18 06:28 | 10.96320 | 123.07038 | 14346 ft | 335 kts | 258° |
| 2026-04-18 06:28 | 10.95822 | 123.04769 | 13963 ft | 327 kts | 258° |
| 2026-04-18 06:29 | 10.95326 | 123.02508 | 13554 ft | 327 kts | 259° |
| 2026-04-18 06:29 | 10.94831 | 123.00258 | 13142 ft | 325 kts | 259° |
| 2026-04-18 06:29 | 10.94607 | 122.97983 | 12747 ft | 322 kts | 273° |
| 2026-04-18 06:29 | 10.94904 | 122.95746 | 12359 ft | 319 kts | 285° |
| 2026-04-18 06:30 | 10.95688 | 122.93649 | 11953 ft | 316 kts | 299° |
| 2026-04-18 06:30 | 10.96731 | 122.91723 | 11560 ft | 315 kts | 300° |
| 2026-04-18 06:30 | 10.97781 | 122.89772 | 11163 ft | 314 kts | 300° |
| 2026-04-18 06:30 | 10.98819 | 122.87827 | 10873 ft | 310 kts | 300° |
| 2026-04-18 06:31 | 10.99842 | 122.85901 | 10478 ft | 310 kts | 300° |
| 2026-04-18 06:31 | 11.00864 | 122.83977 | 10217 ft | 306 kts | 300° |
| 2026-04-18 06:31 | 11.01876 | 122.82069 | 10104 ft | 306 kts | 300° |
| 2026-04-18 06:31 | 11.02887 | 122.80166 | 9962 ft | 305 kts | 299° |
| 2026-04-18 06:32 | 11.03903 | 122.78255 | 9366 ft | 306 kts | 300° |
| 2026-04-18 06:32 | 11.04903 | 122.76372 | 8840 ft | 299 kts | 299° |
| 2026-04-18 06:32 | 11.05874 | 122.74543 | 8342 ft | 288 kts | 299° |
| 2026-04-18 06:32 | 11.06810 | 122.72780 | 7859 ft | 277 kts | 299° |
| 2026-04-18 06:33 | 11.07711 | 122.71086 | 7406 ft | 268 kts | 299° |
| 2026-04-18 06:33 | 11.08583 | 122.69445 | 6956 ft | 259 kts | 298° |
| 2026-04-18 06:33 | 11.09427 | 122.67859 | 6531 ft | 251 kts | 298° |
| 2026-04-18 06:33 | 11.10242 | 122.66326 | 6125 ft | 245 kts | 298° |
| 2026-04-18 06:34 | 11.11051 | 122.64796 | 5681 ft | 245 kts | 297° |
| 2026-04-18 06:34 | 11.11527 | 122.63175 | 5257 ft | 235 kts | 275° |
| 2026-04-18 06:34 | 11.11368 | 122.61561 | 4871 ft | 225 kts | 256° |
| 2026-04-18 06:34 | 11.10674 | 122.60183 | 4487 ft | 216 kts | 233° |
| 2026-04-18 06:35 | 11.09589 | 122.59182 | 4191 ft | 203 kts | 212° |
| 2026-04-18 06:35 | 11.08377 | 122.58632 | 4141 ft | 183 kts | 199° |
| 2026-04-18 06:35 | 11.07194 | 122.58187 | 4091 ft | 180 kts | 200° |
| 2026-04-18 06:35 | 11.06031 | 122.57752 | 4008 ft | 177 kts | 200° |
| 2026-04-18 06:36 | 11.04872 | 122.57322 | 3926 ft | 178 kts | 200° |
| 2026-04-18 06:36 | 11.03712 | 122.56891 | 3873 ft | 177 kts | 200° |
| 2026-04-18 06:36 | 11.02549 | 122.56461 | 3715 ft | 180 kts | 199° |
| 2026-04-18 06:36 | 11.01364 | 122.56022 | 3527 ft | 183 kts | 198° |
| 2026-04-18 06:37 | 11.00189 | 122.55586 | 3304 ft | 177 kts | 199° |
| 2026-04-18 06:37 | 10.99033 | 122.55158 | 3090 ft | 178 kts | 199° |
| 2026-04-18 06:37 | 10.97852 | 122.54721 | 2875 ft | 181 kts | 199° |
| 2026-04-18 06:37 | 10.96668 | 122.54283 | 2660 ft | 181 kts | 199° |
| 2026-04-18 06:38 | 10.95507 | 122.53853 | 2397 ft | 176 kts | 200° |
| 2026-04-18 06:38 | 10.94361 | 122.53429 | 2188 ft | 172 kts | 198° |
| 2026-04-18 06:38 | 10.93279 | 122.53028 | 1959 ft | 165 kts | 198° |
| 2026-04-18 06:38 | 10.92199 | 122.52629 | 1749 ft | 165 kts | 200° |
| 2026-04-18 06:39 | 10.91104 | 122.52223 | 1539 ft | 167 kts | 197° |
| 2026-04-18 06:39 | 10.90018 | 122.51821 | 1306 ft | 165 kts | 198° |
| 2026-04-18 06:39 | 10.88943 | 122.51423 | 1112 ft | 165 kts | 198° |
| 2026-04-18 06:39 | 10.87870 | 122.51026 | 921 ft | 164 kts | 193° |
| 2026-04-18 06:40 | 10.86809 | 122.50631 | 693 ft | 160 kts | 198° |
| 2026-04-18 06:40 | 10.85773 | 122.50231 | 482 ft | 158 kts | 199° |
| 2026-04-18 06:40 | 10.84743 | 122.49859 | 257 ft | 157 kts | 196° |
| 2026-04-18 06:40 | 10.83741 | 122.49490 | 150 ft | 143 kts | 199° |
| 2026-04-18 06:41 | 10.82852 | 122.49163 | 162 ft | 142 kts | 197° |
| 2026-04-18 06:41 | 10.81868 | 122.48793 | 522 ft | 163 kts | 195° |
| 2026-04-18 06:41 | 10.80748 | 122.48391 | 929 ft | 173 kts | 197° |
| 2026-04-18 06:41 | 10.79614 | 122.47980 | 1464 ft | 173 kts | 193° |
| 2026-04-18 06:42 | 10.78444 | 122.48015 | 1799 ft | 175 kts | 150° |
| 2026-04-18 06:42 | 10.77559 | 122.48862 | 1966 ft | 183 kts | 110° |
| 2026-04-18 06:42 | 10.77224 | 122.50144 | 2248 ft | 194 kts | 93° |
| 2026-04-18 06:42 | 10.77314 | 122.51537 | 2402 ft | 209 kts | 70° |
| 2026-04-18 06:43 | 10.78180 | 122.52762 | 2384 ft | 221 kts | 37° |
| 2026-04-18 06:43 | 10.79531 | 122.53498 | 2374 ft | 221 kts | 25° |
| 2026-04-18 06:43 | 10.80944 | 122.54091 | 2376 ft | 221 kts | 22° |
| 2026-04-18 06:43 | 10.82371 | 122.54673 | 2382 ft | 221 kts | 23° |
| 2026-04-18 06:44 | 10.83800 | 122.55240 | 2377 ft | 221 kts | 21° |
| 2026-04-18 06:44 | 10.85223 | 122.55815 | 2379 ft | 221 kts | 23° |
| 2026-04-18 06:44 | 10.86649 | 122.56391 | 2383 ft | 218 kts | 21° |
| 2026-04-18 06:44 | 10.88051 | 122.56972 | 2379 ft | 218 kts | 23° |
| 2026-04-18 06:45 | 10.89477 | 122.57554 | 2379 ft | 222 kts | 22° |
| 2026-04-18 06:45 | 10.90911 | 122.58149 | 2386 ft | 221 kts | 22° |
| 2026-04-18 06:45 | 10.92338 | 122.58737 | 2384 ft | 223 kts | 22° |
| 2026-04-18 06:45 | 10.93822 | 122.58980 | 2378 ft | 214 kts | 353° |
| 2026-04-18 06:46 | 10.95120 | 122.58331 | 2378 ft | 202 kts | 320° |
| 2026-04-18 06:46 | 10.95793 | 122.57185 | 2395 ft | 183 kts | 289° |
| 2026-04-18 06:46 | 10.95822 | 122.55920 | 2377 ft | 178 kts | 259° |
| 2026-04-18 06:46 | 10.95251 | 122.54827 | 2384 ft | 170 kts | 229° |
| 2026-04-18 06:47 | 10.94390 | 122.54048 | 2390 ft | 167 kts | 221° |
| 2026-04-18 06:47 | 10.93515 | 122.53280 | 2320 ft | 169 kts | 219° |
| 2026-04-18 06:47 | 10.92474 | 122.52718 | 1979 ft | 171 kts | 198° |
| 2026-04-18 06:47 | 10.91364 | 122.52313 | 1651 ft | 169 kts | 198° |
| 2026-04-18 06:48 | 10.90272 | 122.51913 | 1391 ft | 165 kts | 196° |
| 2026-04-18 06:48 | 10.89203 | 122.51518 | 1160 ft | 163 kts | 197° |
| 2026-04-18 06:48 | 10.88135 | 122.51123 | 958 ft | 162 kts | 197° |
| 2026-04-18 06:48 | 10.87078 | 122.50719 | 730 ft | 163 kts | 198° |
| 2026-04-18 06:49 | 10.86037 | 122.50317 | 504 ft | 159 kts | 195° |
| 2026-04-18 06:49 | 10.85002 | 122.49955 | 303 ft | 155 kts | 198° |
| 2026-04-18 06:49 | 10.83990 | 122.49589 | 142 ft | 150 kts | 197° |
| 2026-04-18 06:49 | 10.83199 | 122.49299 | 142 ft | 80 kts | 199° |
| 2026-04-18 06:50 | 10.82896 | 122.49218 | 140 ft | 29 kts | 192° |